createdAt,value
2017-10-16T00:00:00.568Z,2.97
2017-10-16T00:02:28.250Z,2.30
2017-10-16T00:04:57.447Z,2.00
2017-10-16T00:07:25.104Z,2.43
2017-10-16T00:09:53.546Z,2.10
2017-10-16T00:12:21.332Z,2.40
2017-10-16T00:14:48.997Z,1.83
2017-10-16T00:17:16.672Z,2.57
2017-10-16T00:19:44.428Z,2.40
2017-10-16T00:22:12.143Z,2.30
2017-10-16T00:24:39.888Z,2.30
2017-10-16T00:27:07.701Z,2.27
2017-10-16T00:29:35.379Z,2.37
2017-10-16T00:32:03.132Z,2.60
2017-10-16T00:34:30.904Z,2.67
2017-10-16T00:36:58.730Z,2.67
2017-10-16T00:39:26.485Z,2.13
2017-10-16T00:41:54.170Z,1.80
2017-10-16T00:44:21.891Z,2.00
2017-10-16T00:46:49.567Z,1.20
2017-10-16T00:49:17.321Z,1.40
2017-10-16T00:51:45.026Z,2.00
2017-10-16T00:54:12.739Z,1.83
2017-10-16T00:56:40.522Z,2.10
2017-10-16T00:59:08.349Z,1.93
2017-10-16T01:01:36.110Z,2.60
2017-10-16T01:04:03.813Z,1.97
2017-10-16T01:06:31.494Z,1.87
2017-10-16T01:08:59.594Z,1.50
2017-10-16T01:11:27.342Z,1.90
2017-10-16T01:13:55.105Z,2.03
2017-10-16T01:16:22.909Z,1.90
2017-10-16T01:18:51.826Z,2.00
2017-10-16T01:21:19.530Z,2.27
2017-10-16T01:23:47.398Z,2.00
2017-10-16T01:26:15.400Z,2.17
2017-10-16T01:28:43.480Z,1.80
2017-10-16T01:31:11.186Z,2.50
2017-10-16T01:33:38.940Z,2.00
2017-10-16T01:36:06.774Z,1.97
2017-10-16T01:38:35.598Z,2.10
2017-10-16T01:41:03.382Z,1.90
2017-10-16T01:43:32.147Z,1.73
2017-10-16T01:45:59.900Z,1.37
2017-10-16T01:48:27.673Z,2.00
2017-10-16T01:50:56.334Z,2.40
2017-10-16T01:53:24.077Z,2.03
2017-10-16T01:55:51.900Z,2.13
2017-10-16T01:58:19.680Z,3.03
2017-10-16T02:00:48.807Z,3.10
2017-10-16T02:03:16.568Z,3.17
2017-10-16T02:05:44.270Z,3.10
2017-10-16T02:08:12.020Z,2.90
2017-10-16T02:10:39.723Z,3.00
2017-10-16T02:13:07.432Z,2.00
2017-10-16T02:15:35.158Z,1.83
2017-10-16T02:18:02.899Z,2.23
2017-10-16T02:20:30.611Z,1.97
2017-10-16T02:22:58.285Z,2.07
2017-10-16T02:25:26.108Z,1.97
2017-10-16T02:27:53.858Z,2.47
2017-10-16T02:30:21.602Z,2.10
2017-10-16T02:32:49.258Z,2.33
2017-10-16T02:35:17.008Z,2.60
2017-10-16T02:37:44.695Z,1.87
2017-10-16T02:40:12.416Z,2.33
2017-10-16T02:42:40.164Z,1.80
2017-10-16T02:45:07.848Z,1.43
2017-10-16T02:47:35.560Z,1.70
2017-10-16T02:50:03.274Z,2.50
2017-10-16T02:52:31.017Z,2.00
2017-10-16T02:54:58.694Z,1.50
2017-10-16T02:57:26.379Z,1.80
2017-10-16T02:59:54.144Z,2.27
2017-10-16T03:02:21.863Z,2.23
2017-10-16T03:04:49.630Z,2.13
2017-10-16T03:07:17.314Z,1.83
2017-10-16T03:09:45.047Z,1.57
2017-10-16T03:12:12.794Z,1.70
2017-10-16T03:14:40.545Z,2.43
2017-10-16T03:17:08.259Z,1.80
2017-10-16T03:19:36.003Z,1.83
2017-10-16T03:22:03.714Z,2.57
2017-10-16T03:24:31.461Z,2.17
2017-10-16T03:26:59.183Z,2.70
2017-10-16T03:29:26.974Z,2.30
2017-10-16T03:31:54.713Z,2.13
2017-10-16T03:34:22.470Z,2.13
2017-10-16T03:36:50.184Z,2.90
2017-10-16T03:39:18.085Z,2.00
2017-10-16T03:41:45.821Z,2.03
2017-10-16T03:44:13.481Z,1.73
2017-10-16T03:46:41.244Z,2.40
2017-10-16T03:49:08.991Z,2.03
2017-10-16T03:51:36.653Z,2.20
2017-10-16T03:54:04.375Z,1.90
2017-10-16T03:56:32.205Z,3.07
2017-10-16T03:58:59.996Z,3.20
2017-10-16T04:01:27.669Z,3.13
2017-10-16T04:03:55.394Z,3.83
2017-10-16T04:06:23.097Z,3.20
2017-10-16T04:08:50.758Z,3.33
2017-10-16T04:11:18.508Z,2.93
2017-10-16T04:13:46.173Z,3.47
2017-10-16T04:16:13.932Z,2.63
2017-10-16T04:18:41.729Z,2.80
2017-10-16T04:21:09.420Z,2.10
2017-10-16T04:23:37.097Z,4.70
2017-10-16T04:26:04.836Z,2.87
2017-10-16T04:28:32.568Z,4.10
2017-10-16T04:31:00.258Z,4.00
2017-10-16T04:33:27.959Z,2.60
2017-10-16T04:35:55.773Z,2.70
2017-10-16T04:38:23.495Z,4.10
2017-10-16T04:40:51.234Z,2.87
2017-10-16T04:43:18.976Z,2.20
2017-10-16T04:45:46.706Z,2.43
2017-10-16T04:48:14.399Z,3.50
2017-10-16T04:50:42.096Z,2.90
2017-10-16T04:53:09.832Z,2.57
2017-10-16T04:55:37.540Z,3.57
2017-10-16T04:58:05.263Z,3.80
2017-10-16T05:00:32.930Z,2.90
2017-10-16T05:03:00.611Z,3.53
2017-10-16T05:05:28.351Z,3.90
2017-10-16T05:07:56.053Z,4.30
2017-10-16T05:10:23.771Z,4.17
2017-10-16T05:12:51.502Z,6.23
2017-10-16T05:15:19.195Z,5.00
2017-10-16T05:17:46.916Z,6.73
2017-10-16T05:20:14.626Z,4.37
2017-10-16T05:22:42.356Z,5.53
2017-10-16T05:25:10.036Z,6.30
2017-10-16T05:27:37.833Z,4.40
2017-10-16T05:30:05.588Z,6.00
2017-10-16T05:32:34.322Z,4.13
2017-10-16T05:35:02.018Z,4.53
2017-10-16T05:37:29.753Z,6.10
2017-10-16T05:39:57.480Z,4.13
2017-10-16T05:42:26.105Z,4.53
2017-10-16T05:44:53.803Z,4.50
2017-10-16T05:47:21.565Z,6.23
2017-10-16T05:49:49.253Z,4.90
2017-10-16T05:52:17.054Z,7.47
2017-10-16T05:54:44.731Z,6.63
2017-10-16T05:57:12.478Z,9.07
2017-10-16T05:59:41.162Z,10.30
2017-10-16T06:02:08.916Z,7.67
2017-10-16T06:04:36.742Z,6.97
2017-10-16T06:07:04.520Z,7.30
2017-10-16T06:09:32.331Z,14.33
2017-10-16T06:12:00.129Z,11.40
2017-10-16T06:14:27.928Z,9.50
2017-10-16T06:16:55.707Z,4.03
2017-10-16T06:19:23.428Z,8.20
2017-10-16T06:21:51.168Z,8.40
2017-10-16T06:24:19.971Z,5.20
2017-10-16T06:26:47.664Z,4.63
2017-10-16T06:29:15.362Z,5.87
2017-10-16T06:31:43.197Z,3.93
2017-10-16T06:34:10.921Z,8.50
2017-10-16T06:36:38.640Z,7.73
2017-10-16T06:39:06.490Z,4.37
2017-10-16T06:41:34.213Z,6.30
2017-10-16T06:44:03.222Z,6.50
2017-10-16T06:46:31.950Z,6.67
2017-10-16T06:48:59.690Z,5.33
2017-10-16T06:51:27.478Z,6.23
2017-10-16T06:53:56.268Z,5.40
2017-10-16T06:56:24.044Z,5.20
2017-10-16T06:58:51.845Z,4.80
2017-10-16T07:01:19.619Z,7.30
2017-10-16T07:03:47.478Z,5.40
2017-10-16T07:06:15.248Z,8.27
2017-10-16T07:08:42.947Z,6.60
2017-10-16T07:11:10.713Z,5.10
2017-10-16T07:13:38.542Z,5.67
2017-10-16T07:16:06.397Z,4.83
2017-10-16T07:18:34.271Z,4.60
2017-10-16T07:21:03.027Z,4.07
2017-10-16T07:23:30.849Z,5.77
2017-10-16T07:25:58.724Z,5.13
2017-10-16T07:28:26.512Z,5.30
2017-10-16T07:30:54.259Z,4.10
2017-10-16T07:33:22.092Z,4.27
2017-10-16T07:35:50.010Z,6.30
2017-10-16T07:38:18.888Z,5.27
2017-10-16T07:40:46.738Z,6.57
2017-10-16T07:43:14.591Z,4.93
2017-10-16T07:45:43.382Z,4.77
2017-10-16T07:48:11.127Z,6.13
2017-10-16T07:50:38.859Z,3.80
2017-10-16T07:53:06.663Z,3.30
2017-10-16T07:55:34.420Z,4.10
2017-10-16T07:58:02.190Z,4.10
2017-10-16T08:00:29.980Z,4.20
2017-10-16T08:02:57.732Z,4.30
2017-10-16T08:05:25.533Z,4.93
2017-10-16T08:07:53.328Z,4.73
2017-10-16T08:10:22.094Z,3.73
2017-10-16T08:12:49.863Z,3.93
2017-10-16T08:15:17.612Z,4.20
2017-10-16T08:17:45.395Z,3.97
2017-10-16T08:20:13.200Z,4.13
2017-10-16T08:22:41.022Z,3.53
2017-10-16T08:25:08.898Z,4.90
2017-10-16T08:27:36.719Z,4.30
2017-10-16T08:30:05.409Z,3.40
2017-10-16T08:32:33.247Z,3.23
2017-10-16T08:35:01.568Z,5.00
2017-10-16T08:37:30.453Z,4.43
2017-10-16T08:39:58.321Z,4.87
2017-10-16T08:42:26.233Z,3.43
2017-10-16T08:44:54.138Z,3.40
2017-10-16T08:47:21.992Z,3.60
2017-10-16T08:49:49.873Z,3.20
2017-10-16T08:52:17.641Z,3.70
2017-10-16T08:54:45.421Z,3.00
2017-10-16T08:57:13.244Z,3.10
2017-10-16T08:59:41.294Z,3.20
2017-10-16T09:02:09.098Z,3.70
2017-10-16T09:04:36.969Z,4.03
2017-10-16T09:07:05.660Z,3.83
2017-10-16T09:09:33.545Z,4.00
2017-10-16T09:12:01.389Z,4.73
2017-10-16T09:14:29.190Z,5.67
2017-10-16T09:16:57.031Z,7.47
2017-10-16T09:19:24.914Z,7.57
2017-10-16T09:21:52.791Z,6.43
2017-10-16T09:24:20.624Z,5.63
2017-10-16T09:26:49.602Z,5.90
2017-10-16T09:29:17.386Z,8.10
2017-10-16T09:31:45.219Z,9.00
2017-10-16T09:34:13.036Z,6.73
2017-10-16T09:36:40.907Z,6.33
2017-10-16T09:39:08.702Z,5.80
2017-10-16T09:41:36.503Z,6.00
2017-10-16T09:44:04.312Z,5.30
2017-10-16T09:46:32.069Z,4.70
2017-10-16T09:48:59.949Z,4.93
2017-10-16T09:51:27.752Z,5.60
2017-10-16T09:53:55.674Z,4.73
2017-10-16T09:56:23.789Z,5.00
2017-10-16T09:58:51.622Z,5.00
2017-10-16T10:01:19.480Z,4.63
2017-10-16T10:03:47.500Z,3.60
2017-10-16T10:06:15.219Z,3.60
2017-10-16T10:08:43.092Z,3.40
2017-10-16T10:11:10.876Z,3.40
2017-10-16T10:13:38.704Z,3.27
2017-10-16T10:16:06.462Z,3.13
2017-10-16T10:18:34.241Z,2.97
2017-10-16T10:21:02.015Z,3.20
2017-10-16T10:23:29.802Z,2.93
2017-10-16T10:25:57.576Z,2.97
2017-10-16T10:28:25.327Z,2.33
2017-10-16T10:30:53.068Z,2.30
2017-10-16T10:33:20.841Z,2.30
2017-10-16T10:35:48.576Z,2.07
2017-10-16T10:38:16.380Z,1.90
2017-10-16T10:40:45.214Z,1.73
2017-10-16T10:43:12.967Z,2.60
2017-10-16T10:45:40.698Z,2.57
2017-10-16T10:48:08.461Z,2.40
2017-10-16T10:50:36.173Z,2.30
2017-10-16T10:53:03.946Z,2.07
2017-10-16T10:55:32.580Z,2.10
2017-10-16T10:58:00.338Z,2.20
2017-10-16T11:00:28.065Z,2.33
2017-10-16T11:02:55.901Z,2.17
2017-10-16T11:05:23.649Z,2.13
2017-10-16T11:07:51.433Z,2.00
2017-10-16T11:10:19.242Z,2.33
2017-10-16T11:12:46.946Z,2.00
2017-10-16T11:15:14.765Z,1.87
2017-10-16T11:17:42.604Z,2.10
2017-10-16T11:20:10.395Z,2.37
2017-10-16T11:22:38.200Z,2.17
2017-10-16T11:25:05.960Z,3.10
2017-10-16T11:27:33.894Z,2.73
2017-10-16T11:30:02.204Z,2.47
2017-10-16T11:32:30.060Z,2.63
2017-10-16T11:34:58.385Z,2.50
2017-10-16T11:37:26.116Z,3.00
2017-10-16T11:39:54.475Z,2.27
2017-10-16T11:42:22.698Z,2.17
2017-10-16T11:44:50.735Z,2.23
2017-10-16T11:47:18.711Z,2.20
2017-10-16T11:49:46.636Z,2.47
2017-10-16T11:52:15.815Z,2.33
2017-10-16T11:54:43.718Z,2.00
2017-10-16T11:57:11.720Z,1.97
2017-10-16T11:59:39.624Z,1.77
2017-10-16T12:02:09.642Z,2.20
2017-10-16T12:04:38.476Z,2.53
2017-10-16T12:07:06.453Z,1.90
2017-10-16T12:09:34.323Z,1.60
2017-10-16T12:12:03.196Z,2.03
2017-10-16T12:14:31.214Z,1.83
2017-10-16T12:16:59.352Z,2.37
2017-10-16T12:19:27.294Z,1.87
2017-10-16T12:21:55.301Z,2.00
2017-10-16T12:24:23.256Z,1.80
2017-10-16T12:26:51.190Z,2.00
2017-10-16T12:29:19.207Z,2.00
2017-10-16T12:31:47.257Z,1.73
2017-10-16T12:34:15.267Z,1.63
2017-10-16T12:36:43.354Z,2.03
2017-10-16T12:39:11.352Z,1.80
2017-10-16T12:41:39.427Z,1.30
2017-10-16T12:44:08.012Z,1.20
2017-10-16T12:46:35.839Z,1.50
2017-10-16T12:49:03.738Z,1.40
2017-10-16T12:51:31.657Z,1.73
2017-10-16T12:53:59.564Z,1.40
2017-10-16T12:56:27.378Z,1.57
2017-10-16T12:58:55.207Z,2.20
2017-10-16T13:01:23.199Z,1.50
2017-10-16T13:03:51.132Z,1.57
2017-10-16T13:06:19.003Z,1.83
2017-10-16T13:08:46.768Z,1.47
2017-10-16T13:11:14.645Z,1.10
2017-10-16T13:13:42.543Z,1.73
2017-10-16T13:16:10.332Z,1.43
2017-10-16T13:18:38.561Z,1.83
2017-10-16T13:21:06.456Z,2.20
2017-10-16T13:23:34.256Z,1.53
2017-10-16T13:26:02.365Z,1.80
2017-10-16T13:28:30.268Z,1.37
2017-10-16T13:30:58.127Z,1.30
2017-10-16T13:33:26.017Z,1.33
2017-10-16T13:35:53.856Z,1.33
2017-10-16T13:38:21.782Z,1.27
2017-10-16T13:40:49.710Z,1.50
2017-10-16T13:43:18.489Z,1.67
2017-10-16T13:45:46.952Z,1.00
2017-10-16T13:48:14.893Z,2.37
2017-10-16T13:50:42.678Z,2.50
2017-10-16T13:53:10.551Z,2.73
2017-10-16T13:55:38.491Z,2.93
2017-10-16T13:58:07.431Z,2.37
2017-10-16T14:00:35.305Z,2.23
2017-10-16T14:03:03.178Z,2.20
2017-10-16T14:05:31.026Z,2.03
2017-10-16T14:07:58.998Z,1.57
2017-10-16T14:10:26.878Z,1.43
2017-10-16T14:12:54.995Z,1.23
2017-10-16T14:15:24.075Z,1.43
2017-10-16T14:17:51.979Z,1.40
2017-10-16T14:20:20.456Z,1.00
2017-10-16T14:22:49.199Z,1.30
2017-10-16T14:25:17.120Z,2.00
2017-10-16T14:27:45.038Z,1.10
2017-10-16T14:30:13.106Z,1.50
2017-10-16T14:32:42.200Z,1.80
2017-10-16T14:35:10.411Z,1.40
2017-10-16T14:37:38.288Z,1.30
2017-10-16T14:40:06.230Z,1.20
2017-10-16T14:42:35.179Z,1.00
2017-10-16T14:45:03.050Z,0.70
2017-10-16T14:47:31.060Z,1.40
2017-10-16T14:49:58.878Z,1.30
2017-10-16T14:52:27.894Z,1.20
2017-10-16T14:54:56.740Z,1.03
2017-10-16T14:57:24.555Z,2.00
2017-10-16T14:59:53.283Z,1.70
2017-10-16T15:02:31.010Z,1.30
2017-10-16T15:04:59.230Z,1.37
2017-10-16T15:07:27.924Z,1.13
2017-10-16T15:09:55.758Z,0.97
2017-10-16T15:12:23.602Z,1.50
2017-10-16T15:14:51.414Z,1.40
2017-10-16T15:17:19.239Z,1.53
2017-10-16T15:19:47.055Z,1.10
2017-10-16T15:22:14.881Z,1.63
2017-10-16T15:24:42.711Z,1.20
2017-10-16T15:27:10.512Z,1.27
2017-10-16T15:29:38.343Z,1.77
2017-10-16T15:32:06.372Z,1.03
2017-10-16T15:34:34.227Z,1.20
2017-10-16T15:37:02.192Z,1.43
2017-10-16T15:39:30.064Z,1.20
2017-10-16T15:41:57.903Z,1.13
2017-10-16T15:44:25.806Z,1.53
2017-10-16T15:46:54.957Z,1.47
2017-10-16T15:49:23.183Z,1.90
2017-10-16T15:51:51.262Z,2.10
2017-10-16T15:54:19.186Z,1.10
2017-10-16T15:56:47.151Z,1.97
2017-10-16T15:59:17.963Z,2.47
2017-10-16T16:01:45.969Z,2.47
2017-10-16T16:04:13.913Z,1.97
2017-10-16T16:06:42.816Z,1.20
2017-10-16T16:09:11.627Z,1.40
2017-10-16T16:11:39.778Z,1.53
2017-10-16T16:14:07.854Z,2.10
2017-10-16T16:16:36.062Z,2.70
2017-10-16T16:19:06.045Z,2.40
2017-10-16T16:21:35.317Z,1.53
2017-10-16T16:24:03.155Z,1.20
2017-10-16T16:26:31.970Z,2.00
2017-10-16T16:29:00.209Z,2.07
2017-10-16T16:31:28.123Z,2.90
2017-10-16T16:33:56.208Z,2.70
2017-10-16T16:36:24.247Z,2.50
2017-10-16T16:38:52.150Z,2.23
2017-10-16T16:41:20.334Z,2.23
2017-10-16T16:43:48.251Z,1.87
2017-10-16T16:46:17.489Z,1.70
2017-10-16T16:48:46.343Z,2.10
2017-10-16T16:51:15.141Z,3.00
2017-10-16T16:53:44.193Z,3.10
2017-10-16T16:56:12.386Z,2.90
2017-10-16T16:58:42.345Z,2.13
2017-10-16T17:01:10.506Z,1.77
2017-10-16T17:03:39.304Z,1.90
2017-10-16T17:06:08.644Z,1.03
2017-10-16T17:08:37.723Z,1.93
2017-10-16T17:11:05.680Z,1.60
2017-10-16T17:13:33.672Z,1.83
2017-10-16T17:16:01.890Z,1.50
2017-10-16T17:18:31.204Z,2.13
2017-10-16T17:20:59.318Z,1.73
2017-10-16T17:23:29.467Z,1.60
2017-10-16T17:25:59.603Z,1.10
2017-10-16T17:28:27.577Z,1.17
2017-10-16T17:30:55.649Z,1.17
2017-10-16T17:33:23.925Z,1.10
2017-10-16T17:35:53.112Z,1.60
2017-10-16T17:38:22.276Z,1.30
2017-10-16T17:40:51.262Z,1.63
2017-10-16T17:43:19.365Z,1.50
2017-10-16T17:45:47.392Z,1.57
2017-10-16T17:48:15.627Z,1.90
2017-10-16T17:50:43.785Z,1.30
2017-10-16T17:53:13.364Z,1.70
2017-10-16T17:55:41.368Z,1.60
2017-10-16T17:58:12.501Z,1.53
2017-10-16T18:00:40.544Z,1.23
2017-10-16T18:03:08.495Z,1.47
2017-10-16T18:05:36.514Z,1.50
2017-10-16T18:08:04.674Z,0.93
2017-10-16T18:10:32.567Z,1.27
2017-10-16T18:13:00.558Z,1.40
2017-10-16T18:15:28.371Z,1.60
2017-10-16T18:17:58.335Z,2.20
2017-10-16T18:20:29.860Z,1.40
2017-10-16T18:22:57.710Z,0.90
2017-10-16T18:25:25.700Z,1.80
2017-10-16T18:27:53.633Z,1.47
2017-10-16T18:30:21.443Z,1.30
2017-10-16T18:32:50.359Z,1.77
2017-10-16T18:35:18.181Z,1.47
2017-10-16T18:37:46.036Z,1.57
2017-10-16T18:40:13.835Z,1.50
2017-10-16T18:42:42.706Z,1.00
2017-10-16T18:45:11.747Z,1.40
2017-10-16T18:47:40.489Z,1.20
2017-10-16T18:50:08.556Z,1.30
2017-10-16T18:52:36.543Z,1.33
2017-10-16T18:55:04.920Z,1.00
2017-10-16T18:57:32.731Z,1.40
2017-10-16T19:00:00.574Z,1.33
2017-10-16T19:02:29.125Z,1.50
2017-10-16T19:04:57.232Z,1.80
2017-10-16T19:07:25.553Z,1.73
2017-10-16T19:09:53.652Z,2.00
2017-10-16T19:12:21.638Z,1.37
2017-10-16T19:14:53.083Z,1.90
2017-10-16T19:17:21.351Z,1.40
2017-10-16T19:19:49.340Z,2.33
2017-10-16T19:22:17.494Z,1.40
2017-10-16T19:24:45.684Z,1.20
2017-10-16T19:27:14.156Z,1.63
2017-10-16T19:29:42.183Z,1.60
2017-10-16T19:32:10.216Z,1.37
2017-10-16T19:34:38.550Z,2.17
2017-10-16T19:37:07.045Z,1.40
2017-10-16T19:39:35.849Z,1.70
2017-10-16T19:42:03.752Z,2.10
2017-10-16T19:44:31.836Z,1.13
2017-10-16T19:47:00.055Z,1.23
2017-10-16T19:49:27.928Z,1.30
2017-10-16T19:51:55.953Z,1.60
2017-10-16T19:54:23.788Z,2.07
2017-10-16T19:56:51.880Z,1.47
2017-10-16T19:59:19.793Z,1.50
2017-10-16T20:01:48.669Z,1.47
2017-10-16T20:04:16.663Z,1.17
2017-10-16T20:06:45.388Z,1.43
2017-10-16T20:09:13.254Z,1.60
2017-10-16T20:11:41.207Z,1.53
2017-10-16T20:14:09.772Z,2.20
2017-10-16T20:16:37.797Z,1.90
2017-10-16T20:19:06.072Z,2.20
2017-10-16T20:21:34.168Z,1.53
2017-10-16T20:24:03.688Z,2.03
2017-10-16T20:26:31.550Z,2.00
2017-10-16T20:29:00.550Z,2.20
2017-10-16T20:31:28.469Z,1.63
2017-10-16T20:33:56.622Z,2.13
2017-10-16T20:36:24.532Z,1.90
2017-10-16T20:38:52.408Z,2.50
2017-10-16T20:41:20.237Z,2.07
2017-10-16T20:43:48.057Z,1.47
2017-10-16T20:46:15.902Z,1.60
2017-10-16T20:48:43.708Z,3.20
2017-10-16T20:51:11.598Z,1.93
2017-10-16T20:53:39.470Z,1.43
2017-10-16T20:56:07.260Z,2.20
2017-10-16T20:58:35.134Z,2.23
2017-10-16T21:01:02.898Z,1.73
2017-10-16T21:03:30.714Z,1.83
2017-10-16T21:05:58.597Z,1.37
2017-10-16T21:08:26.509Z,2.03
2017-10-16T21:10:54.393Z,1.60
2017-10-16T21:13:22.357Z,1.47
2017-10-16T21:15:50.278Z,1.53
2017-10-16T21:18:18.115Z,2.00
2017-10-16T21:20:46.073Z,1.50
2017-10-16T21:23:13.950Z,2.03
2017-10-16T21:25:41.868Z,1.83
2017-10-16T21:28:09.817Z,1.57
2017-10-16T21:30:37.590Z,1.33
2017-10-16T21:33:05.435Z,1.53
2017-10-16T21:35:33.199Z,2.00
2017-10-16T21:38:00.983Z,1.87
2017-10-16T21:40:28.839Z,2.70
2017-10-16T21:42:56.665Z,1.47
2017-10-16T21:45:24.416Z,1.80
2017-10-16T21:47:52.280Z,1.37
2017-10-16T21:50:20.088Z,2.10
2017-10-16T21:52:47.852Z,1.33
2017-10-16T21:55:15.688Z,1.60
2017-10-16T21:57:43.557Z,1.70
2017-10-16T22:00:11.349Z,1.70
2017-10-16T22:02:39.212Z,2.27
2017-10-16T22:05:07.034Z,1.40
2017-10-16T22:07:34.811Z,2.00
2017-10-16T22:10:02.639Z,1.77
2017-10-16T22:12:30.466Z,1.60
2017-10-16T22:14:58.260Z,1.50
2017-10-16T22:17:26.061Z,1.37
2017-10-16T22:19:53.982Z,1.50
2017-10-16T22:22:21.729Z,1.40
2017-10-16T22:24:50.428Z,2.10
2017-10-16T22:27:18.254Z,1.83
2017-10-16T22:29:46.059Z,1.50
2017-10-16T22:32:13.834Z,1.77
2017-10-16T22:34:41.615Z,1.37
2017-10-16T22:37:09.399Z,2.20
2017-10-16T22:39:37.239Z,1.63
2017-10-16T22:42:05.149Z,1.90
2017-10-16T22:44:32.904Z,2.00
2017-10-16T22:47:00.709Z,1.30
2017-10-16T22:49:28.505Z,1.60
2017-10-16T22:51:56.263Z,2.00
2017-10-16T22:54:35.652Z,2.00
2017-10-16T22:57:03.409Z,1.40
2017-10-16T22:59:31.219Z,1.90
2017-10-16T23:01:58.970Z,1.93
2017-10-16T23:04:26.735Z,1.73
2017-10-16T23:06:55.673Z,1.80
2017-10-16T23:09:23.404Z,2.53
2017-10-16T23:11:51.364Z,2.27
2017-10-16T23:14:19.148Z,2.87
2017-10-16T23:16:46.880Z,1.90
2017-10-16T23:19:14.681Z,1.90
2017-10-16T23:21:42.520Z,2.00
2017-10-16T23:24:10.309Z,2.03
2017-10-16T23:26:38.063Z,1.87
2017-10-16T23:29:05.942Z,1.60
2017-10-16T23:31:33.990Z,2.07
2017-10-16T23:34:01.792Z,1.47
2017-10-16T23:36:29.542Z,1.37
2017-10-16T23:38:57.269Z,1.67
2017-10-16T23:41:25.055Z,1.43
2017-10-16T23:43:52.854Z,2.20
2017-10-16T23:46:20.660Z,1.60
2017-10-16T23:48:48.423Z,1.87
2017-10-16T23:51:16.142Z,2.40
2017-10-16T23:53:43.912Z,1.80
2017-10-16T23:56:11.717Z,1.57
2017-10-16T23:58:39.470Z,1.40
